sensor_id;sensor_type;location;lat;lon;timestamp;P1;durP1;ratioP1;P2;durP2;ratioP2
20367;SDS011;10343;52.402;9.796;2022-12-10T00:09:19;40.95;;;8.50;;
20367;SDS011;10343;52.402;9.796;2022-12-10T00:12:15;39.35;;;8.50;;
20367;SDS011;10343;52.402;9.796;2022-12-10T00:14:53;40.53;;;8.93;;
20367;SDS011;10343;52.402;9.796;2022-12-10T00:17:48;40.10;;;8.80;;
20367;SDS011;10343;52.402;9.796;2022-12-10T00:20:33;46.85;;;10.60;;
20367;SDS011;10343;52.402;9.796;2022-12-10T00:23:49;45.30;;;9.10;;
20367;SDS011;10343;52.402;9.796;2022-12-10T00:26:23;37.15;;;8.63;;
20367;SDS011;10343;52.402;9.796;2022-12-10T00:28:53;33.38;;;8.63;;
20367;SDS011;10343;52.402;9.796;2022-12-10T00:31:24;40.65;;;8.05;;
20367;SDS011;10343;52.402;9.796;2022-12-10T00:33:56;40.00;;;8.50;;
20367;SDS011;10343;52.402;9.796;2022-12-10T00:36:47;42.08;;;8.35;;
20367;SDS011;10343;52.402;9.796;2022-12-10T00:39:17;38.92;;;8.07;;
20367;SDS011;10343;52.402;9.796;2022-12-10T00:41:52;43.22;;;8.43;;
20367;SDS011;10343;52.402;9.796;2022-12-10T00:44:22;37.72;;;8.38;;
20367;SDS011;10343;52.402;9.796;2022-12-10T00:47:03;42.33;;;7.40;;
20367;SDS011;10343;52.402;9.796;2022-12-10T00:49:37;41.10;;;9.00;;
20367;SDS011;10343;52.402;9.796;2022-12-10T00:52:11;33.15;;;6.30;;
20367;SDS011;10343;52.402;9.796;2022-12-10T00:54:39;29.67;;;6.72;;
20367;SDS011;10343;52.402;9.796;2022-12-10T00:57:10;32.20;;;6.30;;
20367;SDS011;10343;52.402;9.796;2022-12-10T00:59:40;33.83;;;6.65;;
20367;SDS011;10343;52.402;9.796;2022-12-10T01:02:09;33.58;;;8.07;;
20367;SDS011;10343;52.402;9.796;2022-12-10T01:04:39;33.60;;;6.30;;
20367;SDS011;10343;52.402;9.796;2022-12-10T01:07:11;39.97;;;7.47;;
20367;SDS011;10343;52.402;9.796;2022-12-10T01:09:44;35.00;;;6.63;;
20367;SDS011;10343;52.402;9.796;2022-12-10T01:12:14;31.75;;;6.30;;
20367;SDS011;10343;52.402;9.796;2022-12-10T01:14:44;32.03;;;5.82;;
20367;SDS011;10343;52.402;9.796;2022-12-10T01:17:15;36.85;;;6.93;;
20367;SDS011;10343;52.402;9.796;2022-12-10T01:19:44;34.95;;;5.25;;
20367;SDS011;10343;52.402;9.796;2022-12-10T01:22:16;38.17;;;6.35;;
20367;SDS011;10343;52.402;9.796;2022-12-10T01:24:51;32.13;;;5.70;;
20367;SDS011;10343;52.402;9.796;2022-12-10T01:27:24;38.05;;;6.90;;
20367;SDS011;10343;52.402;9.796;2022-12-10T01:29:59;35.95;;;6.18;;
20367;SDS011;10343;52.402;9.796;2022-12-10T01:32:28;34.05;;;5.28;;
20367;SDS011;10343;52.402;9.796;2022-12-10T01:34:59;38.95;;;8.25;;
20367;SDS011;10343;52.402;9.796;2022-12-10T01:37:29;32.70;;;4.93;;
20367;SDS011;10343;52.402;9.796;2022-12-10T01:40:00;34.47;;;6.55;;
20367;SDS011;10343;52.402;9.796;2022-12-10T01:42:36;36.05;;;5.75;;
20367;SDS011;10343;52.402;9.796;2022-12-10T01:45:08;30.23;;;5.68;;
20367;SDS011;10343;52.402;9.796;2022-12-10T01:47:40;35.30;;;6.85;;
20367;SDS011;10343;52.402;9.796;2022-12-10T01:50:09;33.53;;;6.93;;
20367;SDS011;10343;52.402;9.796;2022-12-10T01:52:40;29.83;;;6.13;;
20367;SDS011;10343;52.402;9.796;2022-12-10T02:05:01;35.33;;;4.63;;
20367;SDS011;10343;52.402;9.796;2022-12-10T02:07:41;33.45;;;4.05;;
20367;SDS011;10343;52.402;9.796;2022-12-10T02:10:26;28.10;;;3.55;;
20367;SDS011;10343;52.402;9.796;2022-12-10T02:13:14;31.90;;;3.63;;
20367;SDS011;10343;52.402;9.796;2022-12-10T02:15:49;34.03;;;4.90;;
20367;SDS011;10343;52.402;9.796;2022-12-10T02:18:24;30.60;;;4.75;;
20367;SDS011;10343;52.402;9.796;2022-12-10T02:21:10;38.42;;;6.88;;
20367;SDS011;10343;52.402;9.796;2022-12-10T02:24:00;24.48;;;3.50;;
20367;SDS011;10343;52.402;9.796;2022-12-10T02:26:52;30.58;;;5.10;;
20367;SDS011;10343;52.402;9.796;2022-12-10T02:29:35;30.35;;;5.05;;
20367;SDS011;10343;52.402;9.796;2022-12-10T02:32:14;26.52;;;4.47;;
20367;SDS011;10343;52.402;9.796;2022-12-10T02:35:00;29.05;;;4.38;;
20367;SDS011;10343;52.402;9.796;2022-12-10T02:37:36;28.08;;;5.13;;
20367;SDS011;10343;52.402;9.796;2022-12-10T02:40:23;29.98;;;4.97;;
20367;SDS011;10343;52.402;9.796;2022-12-10T02:43:08;31.90;;;4.72;;
20367;SDS011;10343;52.402;9.796;2022-12-10T03:00:57;21.10;;;2.80;;
20367;SDS011;10343;52.402;9.796;2022-12-10T03:04:31;22.33;;;2.70;;
20367;SDS011;10343;52.402;9.796;2022-12-10T03:07:22;25.60;;;3.65;;
20367;SDS011;10343;52.402;9.796;2022-12-10T03:13:45;21.08;;;1.58;;
20367;SDS011;10343;52.402;9.796;2022-12-10T03:17:05;23.33;;;3.33;;
20367;SDS011;10343;52.402;9.796;2022-12-10T03:19:55;21.02;;;2.28;;
20367;SDS011;10343;52.402;9.796;2022-12-10T03:23:09;23.38;;;2.72;;
20367;SDS011;10343;52.402;9.796;2022-12-10T03:26:07;22.88;;;2.15;;
20367;SDS011;10343;52.402;9.796;2022-12-10T03:28:56;25.63;;;4.47;;
20367;SDS011;10343;52.402;9.796;2022-12-10T03:32:35;22.52;;;2.63;;
20367;SDS011;10343;52.402;9.796;2022-12-10T03:35:07;18.73;;;2.78;;
20367;SDS011;10343;52.402;9.796;2022-12-10T03:37:38;26.45;;;4.95;;
20367;SDS011;10343;52.402;9.796;2022-12-10T03:40:24;23.33;;;5.22;;
20367;SDS011;10343;52.402;9.796;2022-12-10T03:43:35;29.45;;;4.55;;
20367;SDS011;10343;52.402;9.796;2022-12-10T03:47:18;25.55;;;4.35;;
20367;SDS011;10343;52.402;9.796;2022-12-10T03:50:37;28.55;;;5.00;;
20367;SDS011;10343;52.402;9.796;2022-12-10T03:53:27;24.17;;;4.00;;
20367;SDS011;10343;52.402;9.796;2022-12-10T03:56:02;24.70;;;3.55;;
20367;SDS011;10343;52.402;9.796;2022-12-10T03:58:36;24.35;;;4.47;;
20367;SDS011;10343;52.402;9.796;2022-12-10T04:01:12;23.65;;;4.32;;
20367;SDS011;10343;52.402;9.796;2022-12-10T04:03:52;29.33;;;4.68;;
20367;SDS011;10343;52.402;9.796;2022-12-10T04:06:44;27.58;;;4.60;;
20367;SDS011;10343;52.402;9.796;2022-12-10T04:09:22;23.52;;;3.53;;
20367;SDS011;10343;52.402;9.796;2022-12-10T04:11:57;25.27;;;3.10;;
20367;SDS011;10343;52.402;9.796;2022-12-10T04:14:28;25.85;;;3.60;;
20367;SDS011;10343;52.402;9.796;2022-12-10T04:17:14;20.58;;;3.38;;
20367;SDS011;10343;52.402;9.796;2022-12-10T04:19:46;23.45;;;4.45;;
20367;SDS011;10343;52.402;9.796;2022-12-10T04:22:22;24.52;;;4.55;;
20367;SDS011;10343;52.402;9.796;2022-12-10T04:25:16;24.85;;;4.32;;
20367;SDS011;10343;52.402;9.796;2022-12-10T04:28:03;24.08;;;3.55;;
20367;SDS011;10343;52.402;9.796;2022-12-10T04:30:44;25.83;;;3.15;;
20367;SDS011;10343;52.402;9.796;2022-12-10T04:33:22;25.50;;;3.15;;
20367;SDS011;10343;52.402;9.796;2022-12-10T04:35:54;22.58;;;3.28;;
20367;SDS011;10343;52.402;9.796;2022-12-10T04:38:39;23.92;;;3.88;;
20367;SDS011;10343;52.402;9.796;2022-12-10T04:41:29;19.35;;;2.92;;
20367;SDS011;10343;52.402;9.796;2022-12-10T04:44:02;23.27;;;4.38;;
20367;SDS011;10343;52.402;9.796;2022-12-10T04:46:36;23.30;;;2.95;;
20367;SDS011;10343;52.402;9.796;2022-12-10T04:49:19;18.80;;;2.20;;
20367;SDS011;10343;52.402;9.796;2022-12-10T04:51:48;18.38;;;2.03;;
20367;SDS011;10343;52.402;9.796;2022-12-10T04:54:24;20.33;;;2.63;;
20367;SDS011;10343;52.402;9.796;2022-12-10T04:57:04;21.75;;;2.17;;
20367;SDS011;10343;52.402;9.796;2022-12-10T04:59:40;20.10;;;2.13;;
20367;SDS011;10343;52.402;9.796;2022-12-10T05:02:10;17.80;;;1.88;;
20367;SDS011;10343;52.402;9.796;2022-12-10T05:04:41;19.42;;;1.75;;
20367;SDS011;10343;52.402;9.796;2022-12-10T05:07:11;22.60;;;2.05;;
20367;SDS011;10343;52.402;9.796;2022-12-10T05:09:43;14.55;;;1.35;;
20367;SDS011;10343;52.402;9.796;2022-12-10T05:12:12;21.40;;;2.50;;
20367;SDS011;10343;52.402;9.796;2022-12-10T05:14:43;20.63;;;1.80;;
20367;SDS011;10343;52.402;9.796;2022-12-10T05:17:13;20.17;;;2.78;;
20367;SDS011;10343;52.402;9.796;2022-12-10T05:19:43;14.60;;;0.98;;
20367;SDS011;10343;52.402;9.796;2022-12-10T05:22:12;21.45;;;2.75;;
20367;SDS011;10343;52.402;9.796;2022-12-10T05:25:03;20.90;;;2.35;;
20367;SDS011;10343;52.402;9.796;2022-12-10T05:27:37;15.30;;;1.05;;
20367;SDS011;10343;52.402;9.796;2022-12-10T05:30:07;16.25;;;2.08;;
20367;SDS011;10343;52.402;9.796;2022-12-10T05:38:31;14.23;;;1.13;;
20367;SDS011;10343;52.402;9.796;2022-12-10T05:41:14;18.10;;;1.55;;
20367;SDS011;10343;52.402;9.796;2022-12-10T05:50:19;14.05;;;1.20;;
20367;SDS011;10343;52.402;9.796;2022-12-10T06:05:31;16.45;;;1.20;;
20367;SDS011;10343;52.402;9.796;2022-12-10T06:08:16;17.88;;;1.60;;
20367;SDS011;10343;52.402;9.796;2022-12-10T06:10:45;17.73;;;1.55;;
20367;SDS011;10343;52.402;9.796;2022-12-10T06:13:16;20.50;;;1.65;;
20367;SDS011;10343;52.402;9.796;2022-12-10T06:18:36;15.43;;;1.38;;
20367;SDS011;10343;52.402;9.796;2022-12-10T06:21:12;17.08;;;1.27;;
20367;SDS011;10343;52.402;9.796;2022-12-10T06:23:54;15.82;;;1.60;;
20367;SDS011;10343;52.402;9.796;2022-12-10T06:26:31;12.73;;;0.75;;
20367;SDS011;10343;52.402;9.796;2022-12-10T06:29:11;13.52;;;0.93;;
20367;SDS011;10343;52.402;9.796;2022-12-10T06:31:43;12.80;;;1.33;;
20367;SDS011;10343;52.402;9.796;2022-12-10T06:34:16;11.07;;;0.80;;
20367;SDS011;10343;52.402;9.796;2022-12-10T06:36:50;12.73;;;0.77;;
20367;SDS011;10343;52.402;9.796;2022-12-10T06:39:24;13.70;;;1.10;;
20367;SDS011;10343;52.402;9.796;2022-12-10T06:42:03;11.27;;;0.80;;
20367;SDS011;10343;52.402;9.796;2022-12-10T06:44:41;12.93;;;1.83;;
20367;SDS011;10343;52.402;9.796;2022-12-10T06:47:19;10.63;;;0.57;;
20367;SDS011;10343;52.402;9.796;2022-12-10T06:49:52;13.10;;;0.73;;
20367;SDS011;10343;52.402;9.796;2022-12-10T06:52:36;16.02;;;1.55;;
20367;SDS011;10343;52.402;9.796;2022-12-10T06:55:09;18.73;;;1.17;;
20367;SDS011;10343;52.402;9.796;2022-12-10T06:57:41;11.93;;;1.00;;
20367;SDS011;10343;52.402;9.796;2022-12-10T07:00:19;13.20;;;0.80;;
20367;SDS011;10343;52.402;9.796;2022-12-10T07:03:00;13.35;;;0.57;;
20367;SDS011;10343;52.402;9.796;2022-12-10T07:05:31;15.30;;;1.67;;
20367;SDS011;10343;52.402;9.796;2022-12-10T07:08:06;17.75;;;1.73;;
20367;SDS011;10343;52.402;9.796;2022-12-10T07:10:39;11.82;;;0.80;;
20367;SDS011;10343;52.402;9.796;2022-12-10T07:13:19;12.23;;;1.02;;
20367;SDS011;10343;52.402;9.796;2022-12-10T07:15:58;13.02;;;0.52;;
20367;SDS011;10343;52.402;9.796;2022-12-10T07:18:36;13.60;;;0.75;;
20367;SDS011;10343;52.402;9.796;2022-12-10T07:21:18;15.27;;;1.60;;
20367;SDS011;10343;52.402;9.796;2022-12-10T07:24:33;12.43;;;1.33;;
20367;SDS011;10343;52.402;9.796;2022-12-10T07:27:21;13.80;;;1.35;;
20367;SDS011;10343;52.402;9.796;2022-12-10T07:30:15;13.60;;;0.93;;
20367;SDS011;10343;52.402;9.796;2022-12-10T07:32:46;14.68;;;1.58;;
20367;SDS011;10343;52.402;9.796;2022-12-10T07:35:32;13.05;;;1.17;;
20367;SDS011;10343;52.402;9.796;2022-12-10T07:38:34;15.45;;;1.48;;
20367;SDS011;10343;52.402;9.796;2022-12-10T07:44:20;17.35;;;1.55;;
20367;SDS011;10343;52.402;9.796;2022-12-10T07:47:00;21.20;;;2.00;;
20367;SDS011;10343;52.402;9.796;2022-12-10T07:49:55;16.35;;;1.48;;
20367;SDS011;10343;52.402;9.796;2022-12-10T07:52:38;21.77;;;1.95;;
20367;SDS011;10343;52.402;9.796;2022-12-10T07:55:12;18.40;;;2.78;;
20367;SDS011;10343;52.402;9.796;2022-12-10T07:57:52;21.75;;;2.28;;
20367;SDS011;10343;52.402;9.796;2022-12-10T08:00:30;18.90;;;1.75;;
20367;SDS011;10343;52.402;9.796;2022-12-10T08:03:03;15.80;;;1.35;;
20367;SDS011;10343;52.402;9.796;2022-12-10T08:05:36;13.82;;;1.52;;
20367;SDS011;10343;52.402;9.796;2022-12-10T08:08:05;18.40;;;1.60;;
20367;SDS011;10343;52.402;9.796;2022-12-10T08:10:43;20.63;;;2.30;;
20367;SDS011;10343;52.402;9.796;2022-12-10T08:13:21;12.82;;;1.17;;
20367;SDS011;10343;52.402;9.796;2022-12-10T08:15:54;19.15;;;1.65;;
20367;SDS011;10343;52.402;9.796;2022-12-10T08:18:32;17.55;;;1.90;;
20367;SDS011;10343;52.402;9.796;2022-12-10T08:21:04;14.60;;;1.13;;
20367;SDS011;10343;52.402;9.796;2022-12-10T08:23:35;17.02;;;1.50;;
20367;SDS011;10343;52.402;9.796;2022-12-10T08:26:14;14.27;;;1.50;;
20367;SDS011;10343;52.402;9.796;2022-12-10T08:29:28;18.70;;;2.58;;
20367;SDS011;10343;52.402;9.796;2022-12-10T08:31:58;18.15;;;1.42;;
20367;SDS011;10343;52.402;9.796;2022-12-10T08:34:34;18.88;;;2.17;;
20367;SDS011;10343;52.402;9.796;2022-12-10T08:37:03;19.73;;;2.78;;
20367;SDS011;10343;52.402;9.796;2022-12-10T08:39:38;17.48;;;2.80;;
20367;SDS011;10343;52.402;9.796;2022-12-10T08:42:07;19.95;;;2.60;;
20367;SDS011;10343;52.402;9.796;2022-12-10T08:44:48;18.02;;;2.10;;
20367;SDS011;10343;52.402;9.796;2022-12-10T08:47:20;23.35;;;2.70;;
20367;SDS011;10343;52.402;9.796;2022-12-10T08:50:02;16.92;;;2.22;;
20367;SDS011;10343;52.402;9.796;2022-12-10T08:52:35;17.50;;;2.03;;
20367;SDS011;10343;52.402;9.796;2022-12-10T08:55:07;17.98;;;2.53;;
20367;SDS011;10343;52.402;9.796;2022-12-10T08:57:44;19.58;;;3.05;;
20367;SDS011;10343;52.402;9.796;2022-12-10T09:00:31;24.13;;;4.85;;
20367;SDS011;10343;52.402;9.796;2022-12-10T09:03:07;20.80;;;2.78;;
20367;SDS011;10343;52.402;9.796;2022-12-10T09:06:40;20.38;;;2.45;;
20367;SDS011;10343;52.402;9.796;2022-12-10T09:10:12;26.02;;;3.80;;
20367;SDS011;10343;52.402;9.796;2022-12-10T09:13:20;21.80;;;2.83;;
20367;SDS011;10343;52.402;9.796;2022-12-10T09:16:01;23.20;;;3.63;;
20367;SDS011;10343;52.402;9.796;2022-12-10T09:18:33;22.75;;;3.80;;
20367;SDS011;10343;52.402;9.796;2022-12-10T09:21:04;24.73;;;3.33;;
20367;SDS011;10343;52.402;9.796;2022-12-10T09:23:47;26.33;;;3.78;;
20367;SDS011;10343;52.402;9.796;2022-12-10T09:26:33;27.45;;;3.67;;
20367;SDS011;10343;52.402;9.796;2022-12-10T09:29:48;21.80;;;2.33;;
20367;SDS011;10343;52.402;9.796;2022-12-10T09:33:12;21.70;;;2.85;;
20367;SDS011;10343;52.402;9.796;2022-12-10T09:36:19;20.58;;;1.60;;
20367;SDS011;10343;52.402;9.796;2022-12-10T09:39:09;22.95;;;4.00;;
20367;SDS011;10343;52.402;9.796;2022-12-10T09:42:16;20.80;;;2.35;;
20367;SDS011;10343;52.402;9.796;2022-12-10T09:45:14;18.27;;;2.78;;
20367;SDS011;10343;52.402;9.796;2022-12-10T09:48:24;26.17;;;3.10;;
20367;SDS011;10343;52.402;9.796;2022-12-10T09:51:09;20.05;;;1.90;;
20367;SDS011;10343;52.402;9.796;2022-12-10T09:54:24;22.10;;;2.38;;
20367;SDS011;10343;52.402;9.796;2022-12-10T09:57:32;22.23;;;3.25;;
20367;SDS011;10343;52.402;9.796;2022-12-10T10:00:46;18.52;;;2.90;;
20367;SDS011;10343;52.402;9.796;2022-12-10T10:07:30;16.55;;;2.15;;
20367;SDS011;10343;52.402;9.796;2022-12-10T10:13:30;20.52;;;2.45;;
20367;SDS011;10343;52.402;9.796;2022-12-10T10:16:42;19.30;;;1.95;;
20367;SDS011;10343;52.402;9.796;2022-12-10T10:19:38;21.25;;;3.17;;
20367;SDS011;10343;52.402;9.796;2022-12-10T10:45:59;16.38;;;2.08;;
20367;SDS011;10343;52.402;9.796;2022-12-10T10:49:29;18.60;;;2.83;;
20367;SDS011;10343;52.402;9.796;2022-12-10T10:52:37;22.33;;;2.85;;
20367;SDS011;10343;52.402;9.796;2022-12-10T10:55:47;22.95;;;3.45;;
20367;SDS011;10343;52.402;9.796;2022-12-10T11:38:22;13.80;;;1.15;;
20367;SDS011;10343;52.402;9.796;2022-12-10T11:41:34;22.60;;;2.13;;
20367;SDS011;10343;52.402;9.796;2022-12-10T11:44:40;19.35;;;3.03;;
20367;SDS011;10343;52.402;9.796;2022-12-10T11:47:46;19.13;;;2.45;;
20367;SDS011;10343;52.402;9.796;2022-12-10T11:51:26;18.40;;;2.22;;
20367;SDS011;10343;52.402;9.796;2022-12-10T11:54:29;21.60;;;3.50;;
20367;SDS011;10343;52.402;9.796;2022-12-10T11:57:41;16.33;;;2.17;;
20367;SDS011;10343;52.402;9.796;2022-12-10T12:00:37;18.25;;;2.75;;
20367;SDS011;10343;52.402;9.796;2022-12-10T12:06:04;16.83;;;2.58;;
20367;SDS011;10343;52.402;9.796;2022-12-10T12:09:25;18.20;;;2.40;;
20367;SDS011;10343;52.402;9.796;2022-12-10T12:12:13;18.42;;;1.95;;
20367;SDS011;10343;52.402;9.796;2022-12-10T12:15:34;17.65;;;2.10;;
20367;SDS011;10343;52.402;9.796;2022-12-10T12:18:31;17.88;;;2.90;;
20367;SDS011;10343;52.402;9.796;2022-12-10T12:21:23;16.40;;;1.65;;
20367;SDS011;10343;52.402;9.796;2022-12-10T12:24:41;22.92;;;3.03;;
20367;SDS011;10343;52.402;9.796;2022-12-10T12:27:50;18.17;;;2.05;;
20367;SDS011;10343;52.402;9.796;2022-12-10T12:31:18;16.98;;;2.13;;
20367;SDS011;10343;52.402;9.796;2022-12-10T12:34:29;17.27;;;1.70;;
20367;SDS011;10343;52.402;9.796;2022-12-10T12:37:58;19.48;;;2.45;;
20367;SDS011;10343;52.402;9.796;2022-12-10T12:41:26;17.10;;;1.45;;
20367;SDS011;10343;52.402;9.796;2022-12-10T13:07:42;20.48;;;2.25;;
20367;SDS011;10343;52.402;9.796;2022-12-10T13:10:57;17.83;;;1.63;;
20367;SDS011;10343;52.402;9.796;2022-12-10T13:14:32;21.52;;;2.08;;
20367;SDS011;10343;52.402;9.796;2022-12-10T13:17:26;16.75;;;1.45;;
20367;SDS011;10343;52.402;9.796;2022-12-10T13:31:16;17.13;;;1.88;;
20367;SDS011;10343;52.402;9.796;2022-12-10T13:34:23;20.65;;;2.00;;
20367;SDS011;10343;52.402;9.796;2022-12-10T13:37:18;15.25;;;1.40;;
20367;SDS011;10343;52.402;9.796;2022-12-10T13:40:23;19.27;;;2.42;;
20367;SDS011;10343;52.402;9.796;2022-12-10T13:42:56;17.33;;;1.90;;
20367;SDS011;10343;52.402;9.796;2022-12-10T13:45:49;16.42;;;1.73;;
20367;SDS011;10343;52.402;9.796;2022-12-10T13:49:12;17.33;;;2.00;;
20367;SDS011;10343;52.402;9.796;2022-12-10T13:51:58;19.60;;;2.38;;
20367;SDS011;10343;52.402;9.796;2022-12-10T13:54:44;20.27;;;1.98;;
20367;SDS011;10343;52.402;9.796;2022-12-10T14:05:26;18.55;;;1.90;;
20367;SDS011;10343;52.402;9.796;2022-12-10T14:08:13;13.75;;;1.15;;
20367;SDS011;10343;52.402;9.796;2022-12-10T14:10:59;15.82;;;1.67;;
20367;SDS011;10343;52.402;9.796;2022-12-10T14:13:39;18.05;;;1.60;;
20367;SDS011;10343;52.402;9.796;2022-12-10T14:16:53;16.23;;;1.15;;
20367;SDS011;10343;52.402;9.796;2022-12-10T14:20:13;17.45;;;1.63;;
20367;SDS011;10343;52.402;9.796;2022-12-10T14:23:05;15.73;;;1.58;;
20367;SDS011;10343;52.402;9.796;2022-12-10T14:26:45;17.88;;;1.90;;
20367;SDS011;10343;52.402;9.796;2022-12-10T14:29:37;13.30;;;1.60;;
20367;SDS011;10343;52.402;9.796;2022-12-10T14:32:29;17.35;;;1.48;;
20367;SDS011;10343;52.402;9.796;2022-12-10T14:35:38;19.70;;;2.30;;
20367;SDS011;10343;52.402;9.796;2022-12-10T14:38:59;20.42;;;3.50;;
20367;SDS011;10343;52.402;9.796;2022-12-10T14:41:41;23.75;;;3.38;;
20367;SDS011;10343;52.402;9.796;2022-12-10T14:44:53;17.60;;;2.25;;
20367;SDS011;10343;52.402;9.796;2022-12-10T14:47:44;16.85;;;1.38;;
20367;SDS011;10343;52.402;9.796;2022-12-10T14:50:19;20.92;;;1.45;;
20367;SDS011;10343;52.402;9.796;2022-12-10T14:53:04;24.15;;;3.38;;
20367;SDS011;10343;52.402;9.796;2022-12-10T14:56:08;19.63;;;2.58;;
20367;SDS011;10343;52.402;9.796;2022-12-10T14:59:04;17.95;;;2.45;;
20367;SDS011;10343;52.402;9.796;2022-12-10T15:01:49;22.88;;;2.65;;
20367;SDS011;10343;52.402;9.796;2022-12-10T15:04:40;18.83;;;1.60;;
20367;SDS011;10343;52.402;9.796;2022-12-10T15:07:23;18.83;;;1.63;;
20367;SDS011;10343;52.402;9.796;2022-12-10T15:09:57;23.98;;;2.80;;
20367;SDS011;10343;52.402;9.796;2022-12-10T15:15:35;24.23;;;3.28;;
20367;SDS011;10343;52.402;9.796;2022-12-10T15:18:12;25.85;;;3.20;;
20367;SDS011;10343;52.402;9.796;2022-12-10T15:20:51;23.02;;;2.58;;
20367;SDS011;10343;52.402;9.796;2022-12-10T15:24:18;20.58;;;2.78;;
20367;SDS011;10343;52.402;9.796;2022-12-10T15:27:13;20.88;;;1.52;;
20367;SDS011;10343;52.402;9.796;2022-12-10T15:29:46;17.20;;;2.40;;
20367;SDS011;10343;52.402;9.796;2022-12-10T15:32:21;19.55;;;2.13;;
20367;SDS011;10343;52.402;9.796;2022-12-10T15:34:53;20.55;;;3.35;;
20367;SDS011;10343;52.402;9.796;2022-12-10T15:37:24;16.23;;;3.35;;
20367;SDS011;10343;52.402;9.796;2022-12-10T15:39:57;21.23;;;2.63;;
20367;SDS011;10343;52.402;9.796;2022-12-10T15:42:30;22.35;;;4.05;;
20367;SDS011;10343;52.402;9.796;2022-12-10T15:45:12;20.17;;;3.47;;
20367;SDS011;10343;52.402;9.796;2022-12-10T15:47:47;25.08;;;4.80;;
20367;SDS011;10343;52.402;9.796;2022-12-10T15:50:16;19.98;;;3.20;;
20367;SDS011;10343;52.402;9.796;2022-12-10T15:52:46;21.80;;;3.33;;
20367;SDS011;10343;52.402;9.796;2022-12-10T15:55:14;21.70;;;3.83;;
20367;SDS011;10343;52.402;9.796;2022-12-10T15:57:44;22.08;;;3.65;;
20367;SDS011;10343;52.402;9.796;2022-12-10T16:00:17;24.48;;;5.45;;
20367;SDS011;10343;52.402;9.796;2022-12-10T16:02:50;19.70;;;3.72;;
20367;SDS011;10343;52.402;9.796;2022-12-10T16:05:25;16.30;;;2.95;;
20367;SDS011;10343;52.402;9.796;2022-12-10T16:07:58;23.48;;;3.92;;
20367;SDS011;10343;52.402;9.796;2022-12-10T16:10:28;21.80;;;3.53;;
20367;SDS011;10343;52.402;9.796;2022-12-10T16:12:58;18.70;;;2.35;;
20367;SDS011;10343;52.402;9.796;2022-12-10T16:15:38;19.17;;;3.28;;
20367;SDS011;10343;52.402;9.796;2022-12-10T16:18:24;16.25;;;1.95;;
20367;SDS011;10343;52.402;9.796;2022-12-10T16:20:59;19.88;;;3.85;;
20367;SDS011;10343;52.402;9.796;2022-12-10T16:23:27;20.30;;;2.65;;
20367;SDS011;10343;52.402;9.796;2022-12-10T16:25:57;21.45;;;2.53;;
20367;SDS011;10343;52.402;9.796;2022-12-10T16:28:27;20.67;;;3.38;;
20367;SDS011;10343;52.402;9.796;2022-12-10T16:30:57;22.25;;;4.20;;
20367;SDS011;10343;52.402;9.796;2022-12-10T16:33:32;20.42;;;2.95;;
20367;SDS011;10343;52.402;9.796;2022-12-10T16:36:04;17.70;;;3.17;;
20367;SDS011;10343;52.402;9.796;2022-12-10T16:38:52;16.67;;;1.92;;
20367;SDS011;10343;52.402;9.796;2022-12-10T16:41:37;18.30;;;2.33;;
20367;SDS011;10343;52.402;9.796;2022-12-10T16:44:49;22.40;;;3.88;;
20367;SDS011;10343;52.402;9.796;2022-12-10T16:47:37;21.23;;;3.30;;
20367;SDS011;10343;52.402;9.796;2022-12-10T17:07:59;21.55;;;4.40;;
20367;SDS011;10343;52.402;9.796;2022-12-10T17:10:34;26.45;;;3.88;;
20367;SDS011;10343;52.402;9.796;2022-12-10T17:13:26;20.95;;;3.97;;
20367;SDS011;10343;52.402;9.796;2022-12-10T17:15:58;25.95;;;4.53;;
20367;SDS011;10343;52.402;9.796;2022-12-10T17:37:09;23.08;;;4.38;;
20367;SDS011;10343;52.402;9.796;2022-12-10T17:39:39;21.90;;;4.47;;
20367;SDS011;10343;52.402;9.796;2022-12-10T17:42:08;24.20;;;5.35;;
20367;SDS011;10343;52.402;9.796;2022-12-10T17:44:38;23.27;;;4.22;;
20367;SDS011;10343;52.402;9.796;2022-12-10T17:48:01;24.52;;;5.50;;
20367;SDS011;10343;52.402;9.796;2022-12-10T17:51:17;28.88;;;5.47;;
20367;SDS011;10343;52.402;9.796;2022-12-10T18:09:00;19.60;;;3.28;;
20367;SDS011;10343;52.402;9.796;2022-12-10T18:14:46;24.35;;;4.43;;
20367;SDS011;10343;52.402;9.796;2022-12-10T18:17:53;19.30;;;2.85;;
20367;SDS011;10343;52.402;9.796;2022-12-10T18:21:02;24.85;;;4.68;;
20367;SDS011;10343;52.402;9.796;2022-12-10T18:41:24;21.10;;;3.60;;
20367;SDS011;10343;52.402;9.796;2022-12-10T18:44:03;20.20;;;4.57;;
20367;SDS011;10343;52.402;9.796;2022-12-10T18:52:52;21.02;;;3.75;;
20367;SDS011;10343;52.402;9.796;2022-12-10T21:19:23;20.33;;;2.08;;
20367;SDS011;10343;52.402;9.796;2022-12-10T21:25:05;20.33;;;3.35;;
20367;SDS011;10343;52.402;9.796;2022-12-10T21:31:09;15.88;;;2.20;;
20367;SDS011;10343;52.402;9.796;2022-12-10T21:33:43;22.00;;;3.33;;
20367;SDS011;10343;52.402;9.796;2022-12-10T21:36:16;21.95;;;4.43;;
20367;SDS011;10343;52.402;9.796;2022-12-10T21:38:47;15.70;;;2.20;;
20367;SDS011;10343;52.402;9.796;2022-12-10T21:41:18;21.10;;;4.38;;
20367;SDS011;10343;52.402;9.796;2022-12-10T21:44:06;20.90;;;2.97;;
20367;SDS011;10343;52.402;9.796;2022-12-10T21:46:36;18.70;;;3.45;;
20367;SDS011;10343;52.402;9.796;2022-12-10T21:49:09;21.45;;;3.08;;
20367;SDS011;10343;52.402;9.796;2022-12-10T21:51:40;19.05;;;3.70;;
20367;SDS011;10343;52.402;9.796;2022-12-10T21:54:12;22.08;;;3.53;;
20367;SDS011;10343;52.402;9.796;2022-12-10T21:56:43;19.75;;;3.75;;
20367;SDS011;10343;52.402;9.796;2022-12-10T21:59:13;18.90;;;3.22;;
20367;SDS011;10343;52.402;9.796;2022-12-10T22:01:42;25.20;;;4.07;;
20367;SDS011;10343;52.402;9.796;2022-12-10T22:04:13;21.48;;;3.95;;
20367;SDS011;10343;52.402;9.796;2022-12-10T22:06:44;21.90;;;4.68;;
20367;SDS011;10343;52.402;9.796;2022-12-10T22:09:13;18.80;;;3.20;;
20367;SDS011;10343;52.402;9.796;2022-12-10T22:11:43;24.52;;;4.50;;
20367;SDS011;10343;52.402;9.796;2022-12-10T22:14:14;19.88;;;2.88;;
20367;SDS011;10343;52.402;9.796;2022-12-10T22:16:42;19.67;;;2.90;;
20367;SDS011;10343;52.402;9.796;2022-12-10T22:19:14;18.48;;;3.38;;
20367;SDS011;10343;52.402;9.796;2022-12-10T22:21:42;19.58;;;2.88;;
20367;SDS011;10343;52.402;9.796;2022-12-10T22:24:12;19.42;;;3.28;;
20367;SDS011;10343;52.402;9.796;2022-12-10T22:26:39;20.10;;;3.88;;
20367;SDS011;10343;52.402;9.796;2022-12-10T22:29:08;18.83;;;3.67;;
20367;SDS011;10343;52.402;9.796;2022-12-10T22:31:36;21.92;;;4.13;;
20367;SDS011;10343;52.402;9.796;2022-12-10T22:34:04;18.73;;;3.83;;
20367;SDS011;10343;52.402;9.796;2022-12-10T22:36:33;18.95;;;3.47;;
20367;SDS011;10343;52.402;9.796;2022-12-10T22:39:01;18.48;;;4.13;;
20367;SDS011;10343;52.402;9.796;2022-12-10T22:41:30;21.85;;;3.90;;
20367;SDS011;10343;52.402;9.796;2022-12-10T22:43:58;20.88;;;4.18;;
20367;SDS011;10343;52.402;9.796;2022-12-10T22:46:27;22.77;;;3.72;;
20367;SDS011;10343;52.402;9.796;2022-12-10T22:48:55;22.38;;;4.38;;
20367;SDS011;10343;52.402;9.796;2022-12-10T22:51:23;25.52;;;4.07;;
20367;SDS011;10343;52.402;9.796;2022-12-10T22:53:51;19.90;;;2.50;;
20367;SDS011;10343;52.402;9.796;2022-12-10T22:56:21;16.65;;;2.63;;
20367;SDS011;10343;52.402;9.796;2022-12-10T22:58:52;15.43;;;2.40;;
20367;SDS011;10343;52.402;9.796;2022-12-10T23:01:21;23.00;;;3.92;;
20367;SDS011;10343;52.402;9.796;2022-12-10T23:03:51;22.45;;;4.15;;
20367;SDS011;10343;52.402;9.796;2022-12-10T23:06:20;22.67;;;3.97;;